METAR Data
IDs: Format: Raw Decoded Include TAF

Data at: 2339 UTC 04 Jul 2022

METAR for:KIAB (McConnell AFB, KS, US)
Text:KIAB 042256Z AUTO 20016KT 10SM SCT090 36/18 A2989 RMK AO2 SLP107 T03580184 $
Temperature: 35.8°C ( 96°F)
Dewpoint: 18.4°C ( 65°F) [RH = 36%]
Pressure (altimeter):29.89 inches Hg (1012.3 mb) [Sea level pressure: 1010.7 mb]
Winds:from the SSW (200 degrees) at 18 MPH (16 knots; 8.2 m/s)
Visibility:10 or more sm (16+ km)
Ceiling:at least 12,000 feet AGL
Clouds: scattered clouds at 9000 feet AGL
QC Flag:automated observation with no human augmentation; SOME DATA ABOVE MAY BE INACCURATE!!!"$" is an indication the sensor requires maintenance.

TAF for:KIAB (McConnell AFB, KS, US)
Text:No data found